Central Il Rgnl Arpt at Bloomington-Normal Airport
KBMI : now visible

Airfield :











YOU CAN JOIN US ON...

 
LOGIN :

Register | Disclaimer

   EN    FR    IT 

 









Legend :    VFR   Marginal VFR   IFR   Intensive IFR   Very Intensive IFR
Visi :
Ceiling :
>= 8 km
>= 3000ft
5 to 8 km
1000 to 3000 ft
1500m to 5 km
500 to 1000 ft
800 to 1500m
200 to 500 ft
< 800m
< 200 ft
Symbols :   Thunderstorms  Fog  Heavy snow  Heavy precipitations  Wind > 20 kt







- Airport Elevation : 871 ft
- IATA code : BMI


KBMI - Central Il Rgnl Arpt at Bloomington-Normal

CURRENT METAR :
  • 260656Z AUTO 36003KT 10SM -RA FEW070 SCT090 BKN110 18/17 A3002 RMK AO2 LTG DSNT NE-SE TSE13B29E48 SLP160 P0018 T01830167

EXPIRED METARs :
  • 260635Z AUTO 33010KT 10SM TSRA SCT070 OVC090 18/17 A3005 RMK AO2 LTG DSNT N-SE TSE13B29 P0015
  • 260619Z AUTO 29011KT 10SM RA FEW055 BKN070 OVC090 19/17 A3008 RMK AO2 LTG DSNT ALQDS TSE13 P0010
  • 260556Z AUTO 26011KT 10SM TSRA FEW015 BKN070 OVC095 18/17 A3009 RMK AO2 PK WND 29041/0520 LTG DSNT ALQDS PRESRR SLP181 P0053 60054 T01780167 10272 20178 402830178 53028
  • 260537Z AUTO 27010G20KT 7SM R20/5500VP6000FT TSRA SCT017 BKN037 OVC085 18/16 A3004 RMK AO2 PK WND 29041/0520 LTG DSNT ALQDS P0048
  • 260530Z AUTO 29020G33KT 2 1/2SM R20/5500VP6000FT +TSRA BR SCT016 BKN030 OVC100 18/17 A3004 RMK AO2 PK WND 29041/0520 VIS 1 3/4V5 LTG DSNT ALQDS P0047
  • 260456Z AUTO 27006KT 10SM -TSRA FEW065 SCT095 BKN110 22/21 A3000 RMK AO2 LTG DSNT SW-N TSB22E37B49RAB23 SLP152 P0001 T02220206
  • 260443Z AUTO 22005KT 10SM -RA FEW060 SCT095 BKN120 22/21 A3001 RMK AO2 LTG DSNT SW-NW TSB22E37RAB23 P0001
  • 260428Z AUTO 21006KT 9SM VCTS -RA FEW065 SCT080 BKN110 23/20 A3000 RMK AO2 LTG DSNT W AND NW TSB22RAB23 P0000
  • 260356Z AUTO 00000KT 10SM BKN065 22/20 A3000 RMK AO2 LTG DSNT W SLP151 T02220200

TAF KBMI
Valid from the 26 at 06:00 until the 27 at 06:00 UTC


260530Z 2606/2706 VRB05KT 4SM -SHRA BR VCTS SCT050CB BKN100
FM261000 22005KT 6SM -SHRA BR OVC040
FM261500 26005KT P6SM VCSH OVC120
FM261800 30005KT P6SM BKN060
FM270000 35005KT P6SM SCT050
KZAU FIR / North America



MET'MAP, your aeronautical weather chart ! - Copyright ORBIFLY December 2007 - Disclaimer

ORBIFLY MET'MAP TEAM :

Programming & Development : Alexandra Zaïnal
Concept & Development : Baudouin d'Aumeries
Co-Development & Prog : Marc-Olivier Méhu
Technical & hardware support : Manuel Goepfert

Contact : metmap@orbifly.com




SOURCES & CREDITS :

   NOAA       Earth
Advisory